createdAt,value
2023-02-27T00:19:13.162Z,3
2023-02-27T00:39:13.151Z,3
2023-02-27T00:40:13.150Z,2
2023-02-27T00:41:13.152Z,2
2023-02-27T00:52:13.152Z,3
2023-02-27T01:23:13.148Z,2
2023-02-27T01:29:13.154Z,2
2023-02-27T02:07:13.139Z,3
2023-02-27T02:40:13.128Z,2
2023-02-27T03:02:13.150Z,3
2023-02-27T03:04:13.207Z,3
2023-02-27T03:12:13.124Z,3
2023-02-27T03:44:13.114Z,2
2023-02-27T03:46:13.138Z,3
2023-02-27T03:57:13.108Z,3
2023-02-27T04:41:13.106Z,4
2023-02-27T05:03:13.113Z,4
2023-02-27T05:24:13.104Z,4
2023-02-27T05:25:13.105Z,4
2023-02-27T05:35:13.107Z,5
2023-02-27T05:47:13.112Z,5
2023-02-27T05:58:13.093Z,7
2023-02-27T06:28:13.118Z,5
2023-02-27T06:39:13.088Z,4
2023-02-27T07:11:13.076Z,6
2023-02-27T07:32:13.099Z,5
2023-02-27T07:33:13.094Z,4
2023-02-27T07:41:29.926Z,8
2023-02-27T07:44:13.084Z,10
2023-02-27T07:52:13.098Z,8
2023-02-27T08:05:13.088Z,10
2023-02-27T08:16:13.171Z,12
2023-02-27T08:28:13.097Z,7
2023-02-27T08:53:13.098Z,3
2023-02-27T08:59:13.100Z,3
2023-02-27T09:28:13.110Z,2
2023-02-27T09:31:13.165Z,2
2023-02-27T09:32:13.484Z,2
2023-02-27T09:55:13.112Z,2
2023-02-27T09:56:13.130Z,2
2023-02-27T10:01:13.114Z,1
2023-02-27T10:08:13.112Z,1
2023-02-27T10:41:13.141Z,2
2023-02-27T10:42:13.137Z,2
2023-02-27T11:03:13.124Z,2
2023-02-27T11:13:13.130Z,2
2023-02-27T11:35:13.528Z,2
2023-02-27T11:46:35.882Z,2
2023-02-27T12:07:13.212Z,2
2023-02-27T12:40:13.201Z,2
2023-02-27T13:02:13.125Z,2
2023-02-27T13:42:13.132Z,2
2023-02-27T13:43:13.137Z,2
2023-02-27T14:05:13.135Z,2
2023-02-27T14:06:13.153Z,2
2023-02-27T14:14:13.223Z,2
2023-02-27T14:18:25.739Z,2
2023-02-27T14:40:18.511Z,3
2023-02-27T15:01:13.174Z,3
2023-02-27T15:41:13.146Z,2
2023-02-27T15:42:13.135Z,2
2023-02-27T15:43:13.130Z,2
2023-02-27T15:44:13.133Z,2
2023-02-27T15:46:13.219Z,2
2023-02-27T15:47:13.136Z,2
2023-02-27T15:48:13.155Z,2
2023-02-27T15:49:13.136Z,2
2023-02-27T15:50:13.156Z,2
2023-02-27T15:51:13.137Z,2
2023-02-27T15:52:13.128Z,2
2023-02-27T15:53:13.131Z,2
2023-02-27T15:54:13.130Z,2
2023-02-27T15:55:13.145Z,2
2023-02-27T15:56:13.140Z,2
2023-02-27T15:57:13.124Z,2
2023-02-27T15:58:13.228Z,2
2023-02-27T15:59:13.212Z,2
2023-02-27T16:00:13.130Z,2
2023-02-27T16:01:13.220Z,2
2023-02-27T16:03:13.132Z,2
2023-02-27T16:04:13.124Z,2
2023-02-27T16:05:13.136Z,2
2023-02-27T16:06:13.230Z,2
2023-02-27T16:07:13.124Z,2
2023-02-27T16:08:13.139Z,2
2023-02-27T16:09:13.131Z,2
2023-02-27T16:10:13.134Z,2
2023-02-27T16:11:13.142Z,2
2023-02-27T16:12:13.131Z,1
2023-02-27T16:13:13.125Z,1
2023-02-27T16:14:13.127Z,2
2023-02-27T16:15:13.129Z,2
2023-02-27T16:16:13.155Z,2
2023-02-27T16:17:13.126Z,1
2023-02-27T16:18:13.122Z,2
2023-02-27T16:19:13.126Z,2
2023-02-27T16:20:13.146Z,2
2023-02-27T16:21:13.166Z,2
2023-02-27T16:22:13.138Z,2
2023-02-27T16:23:13.133Z,2
2023-02-27T16:24:13.134Z,2
2023-02-27T16:25:13.125Z,2
2023-02-27T16:26:13.120Z,2
2023-02-27T16:27:13.122Z,2
2023-02-27T16:28:13.117Z,2
2023-02-27T16:29:13.121Z,2
2023-02-27T16:30:13.155Z,2
2023-02-27T16:31:13.804Z,2
2023-02-27T16:32:13.255Z,2
2023-02-27T16:33:13.161Z,2
2023-02-27T16:34:13.150Z,2
2023-02-27T16:35:13.164Z,2
2023-02-27T16:36:13.127Z,2
2023-02-27T16:37:14.001Z,2
2023-02-27T16:38:13.137Z,2
2023-02-27T16:39:13.150Z,2
2023-02-27T16:40:13.237Z,2
2023-02-27T16:41:13.245Z,2
2023-02-27T16:42:13.123Z,2
2023-02-27T16:43:13.132Z,2
2023-02-27T16:44:13.126Z,2
2023-02-27T16:45:13.124Z,2
2023-02-27T16:46:13.188Z,2
2023-02-27T16:47:13.123Z,2
2023-02-27T16:48:13.123Z,2
2023-02-27T16:49:19.797Z,2
2023-02-27T16:50:13.138Z,2
2023-02-27T16:51:13.126Z,2
2023-02-27T16:52:13.147Z,2
2023-02-27T16:54:13.120Z,2
2023-02-27T16:55:13.128Z,2
2023-02-27T16:56:13.122Z,2
2023-02-27T16:57:13.112Z,2
2023-02-27T16:59:13.123Z,2
2023-02-27T17:00:13.135Z,2
2023-02-27T17:01:13.211Z,2
2023-02-27T17:02:13.157Z,2
2023-02-27T17:03:13.127Z,2
2023-02-27T17:04:24.926Z,2
2023-02-27T17:05:13.132Z,3
2023-02-27T17:06:13.131Z,2
2023-02-27T17:07:13.115Z,2
2023-02-27T17:08:13.119Z,2
2023-02-27T17:09:13.198Z,2
2023-02-27T17:10:13.127Z,2
2023-02-27T17:11:13.119Z,2
2023-02-27T17:12:13.121Z,2
2023-02-27T17:13:13.128Z,2
2023-02-27T17:14:13.120Z,2
2023-02-27T17:15:13.130Z,3
2023-02-27T17:16:13.138Z,2
2023-02-27T17:17:13.127Z,2
2023-02-27T17:18:13.125Z,2
2023-02-27T17:19:13.121Z,2
2023-02-27T17:20:13.116Z,2
2023-02-27T17:21:13.125Z,2
2023-02-27T17:22:13.133Z,3
2023-02-27T17:23:14.476Z,2
2023-02-27T17:24:13.140Z,2
2023-02-27T17:25:13.136Z,2
2023-02-27T17:26:13.130Z,2
2023-02-27T17:27:13.121Z,2
2023-02-27T17:28:13.120Z,3
2023-02-27T17:29:13.118Z,2
2023-02-27T17:30:13.137Z,2
2023-02-27T17:31:13.197Z,2
2023-02-27T17:33:13.128Z,3
2023-02-27T17:34:13.126Z,2
2023-02-27T17:35:13.128Z,2
2023-02-27T17:36:13.132Z,3
2023-02-27T17:38:13.126Z,2
2023-02-27T17:39:13.122Z,3
2023-02-27T17:40:13.118Z,3
2023-02-27T17:41:13.130Z,2
2023-02-27T17:42:13.140Z,2
2023-02-27T17:43:13.127Z,2
2023-02-27T17:44:13.115Z,3
2023-02-27T17:45:13.125Z,3
2023-02-27T17:46:13.189Z,3
2023-02-27T17:47:13.118Z,4
2023-02-27T17:48:13.121Z,3
2023-02-27T17:49:13.123Z,2
2023-02-27T17:50:13.122Z,4
2023-02-27T17:51:13.119Z,3
2023-02-27T17:52:13.902Z,3
2023-02-27T17:53:13.125Z,3
2023-02-27T17:54:13.118Z,3
2023-02-27T17:55:13.129Z,3
2023-02-27T17:56:13.128Z,3
2023-02-27T17:57:13.136Z,3
2023-02-27T17:58:13.125Z,3
2023-02-27T17:59:13.120Z,3
2023-02-27T18:00:13.122Z,3
2023-02-27T18:01:13.143Z,3
2023-02-27T18:02:13.168Z,3
2023-02-27T18:03:13.154Z,3
2023-02-27T18:04:13.120Z,3
2023-02-27T18:05:13.137Z,3
2023-02-27T18:06:13.116Z,3
2023-02-27T18:07:13.112Z,3
2023-02-27T18:08:13.119Z,3
2023-02-27T18:09:13.122Z,3
2023-02-27T18:10:13.234Z,3
2023-02-27T18:11:13.119Z,3
2023-02-27T18:12:13.116Z,3
2023-02-27T18:13:13.112Z,3
2023-02-27T18:14:13.117Z,3
2023-02-27T18:15:13.118Z,3
2023-02-27T18:16:13.208Z,3
2023-02-27T18:17:13.131Z,3
2023-02-27T18:19:13.142Z,3
2023-02-27T18:20:13.120Z,3
2023-02-27T18:21:13.228Z,3
2023-02-27T18:22:13.116Z,3
2023-02-27T18:23:13.134Z,4
2023-02-27T18:24:13.113Z,3
2023-02-27T18:25:13.122Z,3
2023-02-27T18:26:27.273Z,3
2023-02-27T18:27:13.118Z,3
2023-02-27T18:28:13.115Z,3
2023-02-27T18:29:13.118Z,3
2023-02-27T18:30:13.115Z,3
2023-02-27T18:31:13.162Z,3
2023-02-27T18:32:13.223Z,3
2023-02-27T18:33:13.114Z,3
2023-02-27T18:34:13.136Z,3
2023-02-27T18:35:13.115Z,3
2023-02-27T18:37:13.128Z,4
2023-02-27T18:38:13.128Z,4
2023-02-27T18:39:13.106Z,4
2023-02-27T18:40:13.109Z,4
2023-02-27T18:42:13.118Z,4
2023-02-27T18:43:13.117Z,5
2023-02-27T18:44:13.123Z,4
2023-02-27T18:45:13.117Z,4
2023-02-27T18:46:13.152Z,4
2023-02-27T18:47:13.111Z,4
2023-02-27T18:48:13.113Z,4
2023-02-27T18:49:13.115Z,4
2023-02-27T18:50:13.108Z,4
2023-02-27T18:51:13.114Z,4
2023-02-27T18:52:13.117Z,4
2023-02-27T18:53:13.120Z,4
2023-02-27T18:54:13.110Z,4
2023-02-27T18:55:13.136Z,4
2023-02-27T18:56:13.108Z,4
2023-02-27T18:57:13.128Z,4
2023-02-27T18:58:13.108Z,4
2023-02-27T18:59:13.122Z,4
2023-02-27T19:00:13.128Z,5
2023-02-27T19:01:13.117Z,5
2023-02-27T19:02:13.109Z,6
2023-02-27T19:03:13.344Z,5
2023-02-27T19:04:13.112Z,5
2023-02-27T19:05:13.148Z,5
2023-02-27T19:06:13.114Z,5
2023-02-27T19:07:13.105Z,5
2023-02-27T19:08:13.112Z,5
2023-02-27T19:09:13.115Z,5
2023-02-27T19:10:13.142Z,5
2023-02-27T19:11:13.108Z,5
2023-02-27T19:12:13.115Z,5
2023-02-27T19:13:13.117Z,5
2023-02-27T19:14:13.105Z,5
2023-02-27T19:15:13.110Z,5
2023-02-27T19:16:13.177Z,5
2023-02-27T19:17:13.113Z,5
2023-02-27T19:18:13.112Z,4
2023-02-27T19:19:13.102Z,5
2023-02-27T19:20:13.132Z,5
2023-02-27T19:21:13.113Z,5
2023-02-27T19:22:13.113Z,5
2023-02-27T19:23:13.109Z,5
2023-02-27T19:24:13.139Z,5
2023-02-27T19:25:13.105Z,5
2023-02-27T19:26:13.111Z,6
2023-02-27T19:27:13.106Z,5
2023-02-27T19:28:13.108Z,5
2023-02-27T19:29:13.111Z,5
2023-02-27T19:30:13.121Z,5
2023-02-27T19:31:13.179Z,5
2023-02-27T19:32:13.129Z,5
2023-02-27T19:33:13.129Z,5
2023-02-27T19:34:13.115Z,5
2023-02-27T19:35:13.112Z,4
2023-02-27T19:36:13.139Z,5
2023-02-27T19:37:13.107Z,5
2023-02-27T19:38:13.110Z,4
2023-02-27T19:39:13.121Z,5
2023-02-27T19:40:13.146Z,5
2023-02-27T19:41:13.122Z,5
2023-02-27T19:42:13.109Z,5
2023-02-27T19:43:13.112Z,5
2023-02-27T19:44:13.112Z,5
2023-02-27T19:46:13.196Z,5
2023-02-27T19:47:13.168Z,5
2023-02-27T19:48:13.115Z,6
2023-02-27T19:49:13.108Z,5
2023-02-27T19:50:13.116Z,5
2023-02-27T19:51:13.108Z,5
2023-02-27T19:52:13.101Z,5
2023-02-27T19:53:13.118Z,6
2023-02-27T19:54:13.110Z,5
2023-02-27T19:55:13.112Z,5
2023-02-27T19:56:13.115Z,6
2023-02-27T19:58:13.114Z,5
2023-02-27T19:59:13.105Z,5
2023-02-27T20:00:13.153Z,5
2023-02-27T20:01:13.157Z,5
2023-02-27T20:03:13.107Z,6
2023-02-27T20:04:13.157Z,6
2023-02-27T20:05:13.120Z,5
2023-02-27T20:06:13.114Z,5
2023-02-27T20:07:13.140Z,5
2023-02-27T20:08:13.114Z,6
2023-02-27T20:09:13.122Z,5
2023-02-27T20:10:13.121Z,5
2023-02-27T20:11:13.109Z,6
2023-02-27T20:12:13.112Z,6
2023-02-27T20:13:13.105Z,6
2023-02-27T20:14:13.112Z,5
2023-02-27T20:15:13.099Z,6
2023-02-27T20:16:13.154Z,6
2023-02-27T20:17:13.104Z,5
2023-02-27T20:18:13.102Z,6
2023-02-27T20:19:13.135Z,5
2023-02-27T20:20:13.112Z,6
2023-02-27T20:21:13.109Z,6
2023-02-27T20:22:13.103Z,6
2023-02-27T20:23:13.105Z,6
2023-02-27T20:24:13.107Z,6
2023-02-27T20:25:13.100Z,6
2023-02-27T20:26:13.113Z,6
2023-02-27T20:27:13.117Z,6
2023-02-27T20:28:13.104Z,6
2023-02-27T20:29:13.108Z,6
2023-02-27T20:30:13.132Z,6
2023-02-27T20:31:13.207Z,6
2023-02-27T20:32:13.266Z,7
2023-02-27T20:33:13.113Z,6
2023-02-27T20:34:13.110Z,5
2023-02-27T20:35:13.109Z,6
2023-02-27T20:36:13.108Z,6
2023-02-27T20:37:13.106Z,5
2023-02-27T20:38:13.132Z,5
2023-02-27T20:39:13.108Z,6
2023-02-27T20:40:13.110Z,5
2023-02-27T20:41:13.103Z,5
2023-02-27T20:42:13.106Z,4
2023-02-27T20:43:13.099Z,5
2023-02-27T20:44:13.104Z,4
2023-02-27T20:45:13.102Z,5
2023-02-27T20:46:13.144Z,5
2023-02-27T20:47:13.102Z,4
2023-02-27T20:48:13.105Z,5
2023-02-27T20:49:13.111Z,4
2023-02-27T20:50:13.110Z,4
2023-02-27T20:51:13.100Z,5
2023-02-27T20:52:13.102Z,5
2023-02-27T20:53:13.110Z,5
2023-02-27T20:54:13.114Z,4
2023-02-27T20:55:13.107Z,4
2023-02-27T20:56:14.272Z,4
2023-02-27T20:57:13.110Z,5
2023-02-27T20:58:13.114Z,5
2023-02-27T20:59:13.111Z,5
2023-02-27T21:00:13.106Z,4
2023-02-27T21:01:13.183Z,4
2023-02-27T21:02:13.112Z,4
2023-02-27T21:03:13.104Z,5
2023-02-27T21:04:13.183Z,5
2023-02-27T21:05:13.176Z,4
2023-02-27T21:06:13.109Z,4
2023-02-27T21:07:13.113Z,4
2023-02-27T21:08:13.106Z,4
2023-02-27T21:09:13.134Z,4
2023-02-27T21:10:13.116Z,4
2023-02-27T21:11:13.105Z,4
2023-02-27T21:12:13.117Z,5
2023-02-27T21:13:13.117Z,4
2023-02-27T21:14:13.107Z,4
2023-02-27T21:15:13.110Z,5
2023-02-27T21:16:13.181Z,4
2023-02-27T21:17:13.108Z,4
2023-02-27T21:18:13.111Z,4
2023-02-27T21:19:13.109Z,4
2023-02-27T21:20:13.101Z,5
2023-02-27T21:21:13.103Z,5
2023-02-27T21:22:13.138Z,5
2023-02-27T21:23:13.104Z,5
2023-02-27T21:24:13.101Z,5
2023-02-27T21:25:13.116Z,5
2023-02-27T21:26:13.107Z,5
2023-02-27T21:27:13.110Z,5
2023-02-27T21:28:13.106Z,5
2023-02-27T21:29:13.103Z,5
2023-02-27T21:30:13.113Z,5
2023-02-27T21:31:13.122Z,5
2023-02-27T21:32:13.155Z,5
2023-02-27T21:33:13.102Z,5
2023-02-27T21:34:13.202Z,5
2023-02-27T21:35:13.117Z,5
2023-02-27T21:36:13.106Z,5
2023-02-27T21:37:13.095Z,5
2023-02-27T21:38:13.099Z,5
2023-02-27T21:39:13.101Z,6
2023-02-27T21:40:13.125Z,5
2023-02-27T21:41:13.096Z,5
2023-02-27T21:42:13.105Z,5
2023-02-27T21:43:13.106Z,5
2023-02-27T21:44:13.105Z,6
2023-02-27T21:46:13.194Z,6
2023-02-27T21:47:13.155Z,6
2023-02-27T21:48:13.097Z,6
2023-02-27T21:49:13.103Z,6
2023-02-27T21:50:13.105Z,5
2023-02-27T21:51:13.104Z,6
2023-02-27T21:52:13.114Z,6
2023-02-27T21:53:13.102Z,6
2023-02-27T21:54:13.095Z,6
2023-02-27T21:55:13.103Z,6
2023-02-27T21:56:13.095Z,6
2023-02-27T21:57:13.104Z,9
2023-02-27T21:58:13.104Z,6
2023-02-27T21:59:13.100Z,7
2023-02-27T22:00:13.109Z,7
2023-02-27T22:01:13.125Z,7
2023-02-27T22:02:13.099Z,7
2023-02-27T22:03:13.102Z,7
2023-02-27T22:04:13.103Z,7
2023-02-27T22:05:13.100Z,7
2023-02-27T22:06:13.096Z,7
2023-02-27T22:07:13.094Z,8
2023-02-27T22:08:13.090Z,8
2023-02-27T22:09:13.142Z,7
2023-02-27T22:10:13.099Z,7
2023-02-27T22:11:13.219Z,8
2023-02-27T22:12:14.538Z,7
2023-02-27T22:13:13.108Z,7
2023-02-27T22:14:13.104Z,7
2023-02-27T22:15:13.279Z,7
2023-02-27T22:16:13.175Z,7
2023-02-27T22:17:13.098Z,8
2023-02-27T22:18:13.099Z,7
2023-02-27T22:19:13.102Z,7
2023-02-27T22:20:13.095Z,7
2023-02-27T22:21:13.100Z,7
2023-02-27T22:22:13.102Z,6
2023-02-27T22:23:13.103Z,7
2023-02-27T22:24:13.090Z,6
2023-02-27T22:25:13.101Z,7
2023-02-27T22:26:13.099Z,7
2023-02-27T22:27:13.094Z,7
2023-02-27T22:28:13.103Z,7
2023-02-27T22:29:13.099Z,7
2023-02-27T22:30:13.094Z,7
2023-02-27T22:31:13.129Z,7
2023-02-27T22:32:13.155Z,8
2023-02-27T22:33:13.100Z,7
2023-02-27T22:34:13.090Z,7
2023-02-27T22:35:13.089Z,7
2023-02-27T22:36:13.111Z,8
2023-02-27T22:37:13.102Z,8
2023-02-27T22:38:13.118Z,7
2023-02-27T22:39:13.101Z,8
2023-02-27T22:40:13.089Z,7
2023-02-27T22:41:13.097Z,7
2023-02-27T22:42:13.132Z,7
2023-02-27T22:43:13.108Z,8
2023-02-27T22:44:13.094Z,8
2023-02-27T22:45:13.095Z,7
2023-02-27T22:46:13.143Z,7
2023-02-27T22:47:13.098Z,8
2023-02-27T22:48:13.114Z,8
2023-02-27T22:49:13.097Z,7
2023-02-27T22:50:13.099Z,7
2023-02-27T22:51:13.092Z,7
2023-02-27T22:52:13.097Z,7
2023-02-27T22:53:13.090Z,8
2023-02-27T22:54:13.088Z,8
2023-02-27T22:55:13.093Z,7
2023-02-27T22:56:13.113Z,7
2023-02-27T22:57:13.094Z,7
2023-02-27T22:58:13.692Z,7
2023-02-27T22:59:13.096Z,7
2023-02-27T23:00:13.090Z,6
2023-02-27T23:01:13.104Z,7
2023-02-27T23:02:13.147Z,7
2023-02-27T23:03:13.093Z,7
2023-02-27T23:05:13.095Z,7
2023-02-27T23:06:13.095Z,6
2023-02-27T23:07:13.092Z,7
2023-02-27T23:08:13.091Z,6
2023-02-27T23:09:13.107Z,7
2023-02-27T23:10:13.092Z,6
2023-02-27T23:11:13.088Z,6
2023-02-27T23:12:13.092Z,7
2023-02-27T23:13:13.118Z,6
2023-02-27T23:14:13.092Z,7
2023-02-27T23:15:13.140Z,7
2023-02-27T23:16:13.139Z,7
2023-02-27T23:17:13.090Z,6
2023-02-27T23:18:13.117Z,6
2023-02-27T23:19:13.091Z,6
2023-02-27T23:20:13.096Z,7
2023-02-27T23:21:13.088Z,7
2023-02-27T23:22:13.077Z,6
2023-02-27T23:23:13.085Z,6
2023-02-27T23:24:13.088Z,7
2023-02-27T23:25:13.084Z,7
2023-02-27T23:26:13.095Z,6
2023-02-27T23:27:25.516Z,7
2023-02-27T23:28:13.104Z,6
2023-02-27T23:29:13.080Z,6
2023-02-27T23:30:13.083Z,7
2023-02-27T23:31:13.155Z,6
2023-02-27T23:32:13.231Z,7
2023-02-27T23:33:13.080Z,6
2023-02-27T23:35:13.088Z,6
2023-02-27T23:36:13.104Z,6
2023-02-27T23:37:13.090Z,6
2023-02-27T23:38:13.096Z,5
2023-02-27T23:39:13.080Z,6
2023-02-27T23:40:13.083Z,6
2023-02-27T23:41:13.221Z,6
2023-02-27T23:42:13.080Z,6
2023-02-27T23:43:13.081Z,6
2023-02-27T23:44:13.109Z,7
2023-02-27T23:45:13.084Z,6
2023-02-27T23:46:13.227Z,6
2023-02-27T23:47:13.088Z,6
2023-02-27T23:48:13.095Z,6
2023-02-27T23:49:13.084Z,6
2023-02-27T23:50:13.087Z,6
2023-02-27T23:51:13.085Z,6
2023-02-27T23:52:13.082Z,6
2023-02-27T23:53:13.090Z,6
2023-02-27T23:54:13.090Z,6
2023-02-27T23:55:13.079Z,5
2023-02-27T23:56:13.078Z,6
2023-02-27T23:57:13.091Z,6
2023-02-27T23:58:13.079Z,6
2023-02-27T23:59:13.084Z,6
